sensor_id;sensor_type;location;lat;lon;timestamp;pressure;altitude;pressure_sealevel;temperature
14666;BMP280;7420;53.574;10.040;2023-06-14T00:00:30;54235.41;;;-136.87
14666;BMP280;7420;53.574;10.040;2023-06-14T00:02:56;54231.31;;;-136.87
14666;BMP280;7420;53.574;10.040;2023-06-14T00:05:22;54233.38;;;-136.87
14666;BMP280;7420;53.574;10.040;2023-06-14T00:07:48;54231.31;;;-136.87
14666;BMP280;7420;53.574;10.040;2023-06-14T00:10:14;54231.31;;;-136.87
14666;BMP280;7420;53.574;10.040;2023-06-14T00:12:40;54233.38;;;-136.87
14666;BMP280;7420;53.574;10.040;2023-06-14T00:15:07;54227.25;;;-136.87
14666;BMP280;7420;53.574;10.040;2023-06-14T00:17:32;54233.38;;;-136.87
14666;BMP280;7420;53.574;10.040;2023-06-14T00:19:59;54229.28;;;-136.87
14666;BMP280;7420;53.574;10.040;2023-06-14T00:22:25;54231.31;;;-136.87
14666;BMP280;7420;53.574;10.040;2023-06-14T00:24:51;54229.28;;;-136.87
14666;BMP280;7420;53.574;10.040;2023-06-14T00:27:17;54229.28;;;-136.87
14666;BMP280;7420;53.574;10.040;2023-06-14T00:29:43;54233.38;;;-136.87
14666;BMP280;7420;53.574;10.040;2023-06-14T00:32:08;54229.28;;;-136.87
14666;BMP280;7420;53.574;10.040;2023-06-14T00:34:34;54233.38;;;-136.87
14666;BMP280;7420;53.574;10.040;2023-06-14T00:36:59;54229.28;;;-136.87
14666;BMP280;7420;53.574;10.040;2023-06-14T00:39:25;54231.31;;;-136.87
14666;BMP280;7420;53.574;10.040;2023-06-14T00:41:50;54231.31;;;-136.87
14666;BMP280;7420;53.574;10.040;2023-06-14T00:44:16;54227.25;;;-136.87
14666;BMP280;7420;53.574;10.040;2023-06-14T00:46:42;54233.38;;;-136.87
14666;BMP280;7420;53.574;10.040;2023-06-14T00:49:08;54231.31;;;-136.87
14666;BMP280;7420;53.574;10.040;2023-06-14T00:51:33;54231.31;;;-136.87
14666;BMP280;7420;53.574;10.040;2023-06-14T00:54:02;54229.28;;;-136.87
14666;BMP280;7420;53.574;10.040;2023-06-14T00:56:28;54233.38;;;-136.87
14666;BMP280;7420;53.574;10.040;2023-06-14T00:58:55;54231.31;;;-136.87
14666;BMP280;7420;53.574;10.040;2023-06-14T01:01:21;54233.38;;;-136.87
14666;BMP280;7420;53.574;10.040;2023-06-14T01:03:46;54229.28;;;-136.87
14666;BMP280;7420;53.574;10.040;2023-06-14T01:06:23;54231.31;;;-136.87
14666;BMP280;7420;53.574;10.040;2023-06-14T01:09:24;54231.31;;;-136.87
14666;BMP280;7420;53.574;10.040;2023-06-14T01:11:59;54231.31;;;-136.87
14666;BMP280;7420;53.574;10.040;2023-06-14T01:14:27;54233.38;;;-136.87
14666;BMP280;7420;53.574;10.040;2023-06-14T01:16:53;54231.31;;;-136.87
14666;BMP280;7420;53.574;10.040;2023-06-14T01:19:19;54233.38;;;-136.87
14666;BMP280;7420;53.574;10.040;2023-06-14T01:21:47;54231.31;;;-136.87
14666;BMP280;7420;53.574;10.040;2023-06-14T01:24:16;54229.28;;;-136.87
14666;BMP280;7420;53.574;10.040;2023-06-14T01:26:45;54229.28;;;-136.87
14666;BMP280;7420;53.574;10.040;2023-06-14T01:29:13;54229.28;;;-136.87
14666;BMP280;7420;53.574;10.040;2023-06-14T01:31:42;54233.38;;;-136.87
14666;BMP280;7420;53.574;10.040;2023-06-14T01:34:08;54231.31;;;-136.87
14666;BMP280;7420;53.574;10.040;2023-06-14T01:36:35;54233.38;;;-136.87
14666;BMP280;7420;53.574;10.040;2023-06-14T01:39:01;54229.28;;;-136.87
14666;BMP280;7420;53.574;10.040;2023-06-14T01:41:28;54231.31;;;-136.87
14666;BMP280;7420;53.574;10.040;2023-06-14T01:43:54;54229.28;;;-136.87
14666;BMP280;7420;53.574;10.040;2023-06-14T01:46:20;54231.31;;;-136.87
14666;BMP280;7420;53.574;10.040;2023-06-14T01:48:45;54231.31;;;-136.87
14666;BMP280;7420;53.574;10.040;2023-06-14T01:51:11;54229.28;;;-136.87
14666;BMP280;7420;53.574;10.040;2023-06-14T01:53:36;54229.28;;;-136.87
14666;BMP280;7420;53.574;10.040;2023-06-14T01:56:01;54233.38;;;-136.87
14666;BMP280;7420;53.574;10.040;2023-06-14T01:58:27;54227.25;;;-136.87
14666;BMP280;7420;53.574;10.040;2023-06-14T02:00:52;54229.28;;;-136.87
14666;BMP280;7420;53.574;10.040;2023-06-14T02:03:20;54231.31;;;-136.87
14666;BMP280;7420;53.574;10.040;2023-06-14T02:05:46;54229.28;;;-136.87
14666;BMP280;7420;53.574;10.040;2023-06-14T02:08:11;54231.31;;;-136.87
14666;BMP280;7420;53.574;10.040;2023-06-14T02:13:22;54229.28;;;-136.87
14666;BMP280;7420;53.574;10.040;2023-06-14T02:15:48;54231.31;;;-136.87
14666;BMP280;7420;53.574;10.040;2023-06-14T02:18:16;54231.31;;;-136.87
14666;BMP280;7420;53.574;10.040;2023-06-14T02:20:41;54229.28;;;-136.87
14666;BMP280;7420;53.574;10.040;2023-06-14T02:23:07;54231.31;;;-136.87
14666;BMP280;7420;53.574;10.040;2023-06-14T02:25:32;54227.25;;;-136.87
14666;BMP280;7420;53.574;10.040;2023-06-14T02:27:58;54231.31;;;-136.87
14666;BMP280;7420;53.574;10.040;2023-06-14T02:30:23;54231.31;;;-136.87
14666;BMP280;7420;53.574;10.040;2023-06-14T02:32:48;54229.28;;;-136.87
14666;BMP280;7420;53.574;10.040;2023-06-14T02:35:16;54233.38;;;-136.87
14666;BMP280;7420;53.574;10.040;2023-06-14T02:37:41;54233.38;;;-136.87
14666;BMP280;7420;53.574;10.040;2023-06-14T02:40:08;54229.28;;;-136.87
14666;BMP280;7420;53.574;10.040;2023-06-14T02:42:34;54229.28;;;-136.87
14666;BMP280;7420;53.574;10.040;2023-06-14T02:44:59;54229.28;;;-136.87
14666;BMP280;7420;53.574;10.040;2023-06-14T02:47:25;54233.38;;;-136.87
14666;BMP280;7420;53.574;10.040;2023-06-14T02:49:50;54229.28;;;-136.87
14666;BMP280;7420;53.574;10.040;2023-06-14T02:52:16;54229.28;;;-136.87
14666;BMP280;7420;53.574;10.040;2023-06-14T02:54:41;54231.31;;;-136.87
14666;BMP280;7420;53.574;10.040;2023-06-14T02:57:07;54229.28;;;-136.87
14666;BMP280;7420;53.574;10.040;2023-06-14T02:59:33;54231.31;;;-136.87
14666;BMP280;7420;53.574;10.040;2023-06-14T03:01:59;54231.31;;;-136.87
14666;BMP280;7420;53.574;10.040;2023-06-14T03:04:24;54227.25;;;-136.87
14666;BMP280;7420;53.574;10.040;2023-06-14T03:06:51;54227.25;;;-136.87
14666;BMP280;7420;53.574;10.040;2023-06-14T03:09:17;54227.25;;;-136.87
14666;BMP280;7420;53.574;10.040;2023-06-14T03:11:42;54229.28;;;-136.87
14666;BMP280;7420;53.574;10.040;2023-06-14T03:14:08;54229.28;;;-136.87
14666;BMP280;7420;53.574;10.040;2023-06-14T03:16:34;54231.31;;;-136.87
14666;BMP280;7420;53.574;10.040;2023-06-14T03:18:59;54231.31;;;-136.87
14666;BMP280;7420;53.574;10.040;2023-06-14T03:21:25;54231.31;;;-136.87
14666;BMP280;7420;53.574;10.040;2023-06-14T03:23:51;54231.31;;;-136.87
14666;BMP280;7420;53.574;10.040;2023-06-14T03:26:18;54231.31;;;-136.87
14666;BMP280;7420;53.574;10.040;2023-06-14T03:28:45;54227.25;;;-136.87
14666;BMP280;7420;53.574;10.040;2023-06-14T03:31:12;54231.31;;;-136.87
14666;BMP280;7420;53.574;10.040;2023-06-14T03:33:38;54233.38;;;-136.87
14666;BMP280;7420;53.574;10.040;2023-06-14T03:36:04;54231.31;;;-136.87
14666;BMP280;7420;53.574;10.040;2023-06-14T03:38:30;54229.28;;;-136.87
14666;BMP280;7420;53.574;10.040;2023-06-14T03:40:55;54227.25;;;-136.87
14666;BMP280;7420;53.574;10.040;2023-06-14T03:43:21;54229.28;;;-136.87
14666;BMP280;7420;53.574;10.040;2023-06-14T03:45:46;54229.28;;;-136.87
14666;BMP280;7420;53.574;10.040;2023-06-14T03:48:11;54229.28;;;-136.87
14666;BMP280;7420;53.574;10.040;2023-06-14T03:50:37;54229.28;;;-136.87
14666;BMP280;7420;53.574;10.040;2023-06-14T03:53:04;54227.25;;;-136.87
14666;BMP280;7420;53.574;10.040;2023-06-14T03:55:29;54231.31;;;-136.87
14666;BMP280;7420;53.574;10.040;2023-06-14T03:57:56;54229.28;;;-136.87
14666;BMP280;7420;53.574;10.040;2023-06-14T04:00:22;54233.38;;;-136.87
14666;BMP280;7420;53.574;10.040;2023-06-14T04:02:47;54231.31;;;-136.87
14666;BMP280;7420;53.574;10.040;2023-06-14T04:05:13;54229.28;;;-136.87
14666;BMP280;7420;53.574;10.040;2023-06-14T04:07:38;54229.28;;;-136.87
14666;BMP280;7420;53.574;10.040;2023-06-14T04:10:14;54229.28;;;-136.87
14666;BMP280;7420;53.574;10.040;2023-06-14T04:12:40;54229.28;;;-136.87
14666;BMP280;7420;53.574;10.040;2023-06-14T04:15:06;54229.28;;;-136.87
14666;BMP280;7420;53.574;10.040;2023-06-14T04:17:33;54231.31;;;-136.87
14666;BMP280;7420;53.574;10.040;2023-06-14T04:19:59;54229.28;;;-136.87
14666;BMP280;7420;53.574;10.040;2023-06-14T04:22:26;54229.28;;;-136.87
14666;BMP280;7420;53.574;10.040;2023-06-14T04:24:54;54229.28;;;-136.87
14666;BMP280;7420;53.574;10.040;2023-06-14T04:27:25;54229.28;;;-136.87
14666;BMP280;7420;53.574;10.040;2023-06-14T04:29:54;54229.28;;;-136.87
14666;BMP280;7420;53.574;10.040;2023-06-14T04:32:25;54229.28;;;-136.87
14666;BMP280;7420;53.574;10.040;2023-06-14T04:34:55;54231.31;;;-136.87
14666;BMP280;7420;53.574;10.040;2023-06-14T04:37:21;54231.31;;;-136.87
14666;BMP280;7420;53.574;10.040;2023-06-14T04:39:50;54231.31;;;-136.87
14666;BMP280;7420;53.574;10.040;2023-06-14T04:42:16;54231.31;;;-136.87
14666;BMP280;7420;53.574;10.040;2023-06-14T04:44:45;54225.19;;;-136.87
14666;BMP280;7420;53.574;10.040;2023-06-14T04:47:13;54229.28;;;-136.87
14666;BMP280;7420;53.574;10.040;2023-06-14T04:49:39;54225.19;;;-136.87
14666;BMP280;7420;53.574;10.040;2023-06-14T04:52:06;54229.28;;;-136.87
14666;BMP280;7420;53.574;10.040;2023-06-14T04:54:32;54229.28;;;-136.87
14666;BMP280;7420;53.574;10.040;2023-06-14T04:56:59;54227.25;;;-136.87
14666;BMP280;7420;53.574;10.040;2023-06-14T04:59:24;54227.25;;;-136.87
14666;BMP280;7420;53.574;10.040;2023-06-14T05:01:50;54229.28;;;-136.87
14666;BMP280;7420;53.574;10.040;2023-06-14T05:04:17;54229.28;;;-136.87
14666;BMP280;7420;53.574;10.040;2023-06-14T05:06:43;54225.19;;;-136.87
14666;BMP280;7420;53.574;10.040;2023-06-14T05:09:10;54229.28;;;-136.87
14666;BMP280;7420;53.574;10.040;2023-06-14T05:11:36;54227.25;;;-136.87
14666;BMP280;7420;53.574;10.040;2023-06-14T05:14:01;54227.25;;;-136.87
14666;BMP280;7420;53.574;10.040;2023-06-14T05:16:26;54229.28;;;-136.87
14666;BMP280;7420;53.574;10.040;2023-06-14T05:18:52;54227.25;;;-136.87
14666;BMP280;7420;53.574;10.040;2023-06-14T05:21:18;54229.28;;;-136.87
14666;BMP280;7420;53.574;10.040;2023-06-14T05:23:44;54229.28;;;-136.87
14666;BMP280;7420;53.574;10.040;2023-06-14T05:26:10;54231.31;;;-136.87
14666;BMP280;7420;53.574;10.040;2023-06-14T05:28:36;54225.19;;;-136.87
14666;BMP280;7420;53.574;10.040;2023-06-14T05:31:01;54229.28;;;-136.87
14666;BMP280;7420;53.574;10.040;2023-06-14T05:33:26;54227.25;;;-136.87
14666;BMP280;7420;53.574;10.040;2023-06-14T05:35:52;54227.25;;;-136.87
14666;BMP280;7420;53.574;10.040;2023-06-14T05:38:17;54225.19;;;-136.87
14666;BMP280;7420;53.574;10.040;2023-06-14T05:40:42;54227.25;;;-136.87
14666;BMP280;7420;53.574;10.040;2023-06-14T05:43:08;54229.28;;;-136.87
14666;BMP280;7420;53.574;10.040;2023-06-14T05:45:33;54225.19;;;-136.87
14666;BMP280;7420;53.574;10.040;2023-06-14T05:47:59;54229.28;;;-136.87
14666;BMP280;7420;53.574;10.040;2023-06-14T05:50:24;54229.28;;;-136.87
14666;BMP280;7420;53.574;10.040;2023-06-14T05:52:49;54227.25;;;-136.87
14666;BMP280;7420;53.574;10.040;2023-06-14T05:55:16;54225.19;;;-136.87
14666;BMP280;7420;53.574;10.040;2023-06-14T05:57:41;54231.31;;;-136.87
14666;BMP280;7420;53.574;10.040;2023-06-14T06:00:08;54227.25;;;-136.87
14666;BMP280;7420;53.574;10.040;2023-06-14T06:02:36;54229.28;;;-136.87
14666;BMP280;7420;53.574;10.040;2023-06-14T06:05:02;54229.28;;;-136.87
14666;BMP280;7420;53.574;10.040;2023-06-14T06:07:27;54225.19;;;-136.87
14666;BMP280;7420;53.574;10.040;2023-06-14T06:09:53;54227.25;;;-136.87
14666;BMP280;7420;53.574;10.040;2023-06-14T06:12:18;54229.28;;;-136.87
14666;BMP280;7420;53.574;10.040;2023-06-14T06:14:44;54225.19;;;-136.87
14666;BMP280;7420;53.574;10.040;2023-06-14T06:17:09;54225.19;;;-136.87
14666;BMP280;7420;53.574;10.040;2023-06-14T06:19:34;54229.28;;;-136.87
14666;BMP280;7420;53.574;10.040;2023-06-14T06:22:00;54225.19;;;-136.87
14666;BMP280;7420;53.574;10.040;2023-06-14T06:24:25;54227.25;;;-136.87
14666;BMP280;7420;53.574;10.040;2023-06-14T06:26:50;54227.25;;;-136.87
14666;BMP280;7420;53.574;10.040;2023-06-14T06:29:16;54227.25;;;-136.87
14666;BMP280;7420;53.574;10.040;2023-06-14T06:31:41;54225.19;;;-136.87
14666;BMP280;7420;53.574;10.040;2023-06-14T06:34:06;54229.28;;;-136.87
14666;BMP280;7420;53.574;10.040;2023-06-14T06:36:32;54227.25;;;-136.87
14666;BMP280;7420;53.574;10.040;2023-06-14T06:38:57;54225.19;;;-136.87
14666;BMP280;7420;53.574;10.040;2023-06-14T06:41:23;54227.25;;;-136.87
14666;BMP280;7420;53.574;10.040;2023-06-14T06:43:48;54225.19;;;-136.87
14666;BMP280;7420;53.574;10.040;2023-06-14T06:46:14;54227.25;;;-136.87
14666;BMP280;7420;53.574;10.040;2023-06-14T06:48:39;54223.16;;;-136.87
14666;BMP280;7420;53.574;10.040;2023-06-14T06:51:04;54225.19;;;-136.87
14666;BMP280;7420;53.574;10.040;2023-06-14T06:53:30;54227.25;;;-136.87
14666;BMP280;7420;53.574;10.040;2023-06-14T06:55:56;54227.25;;;-136.87
14666;BMP280;7420;53.574;10.040;2023-06-14T06:58:21;54227.25;;;-136.87
14666;BMP280;7420;53.574;10.040;2023-06-14T07:00:47;54229.28;;;-136.87
14666;BMP280;7420;53.574;10.040;2023-06-14T07:03:12;54225.19;;;-136.87
14666;BMP280;7420;53.574;10.040;2023-06-14T07:05:38;54225.19;;;-136.87
14666;BMP280;7420;53.574;10.040;2023-06-14T07:08:03;54229.28;;;-136.87
14666;BMP280;7420;53.574;10.040;2023-06-14T07:10:29;54227.25;;;-136.87
14666;BMP280;7420;53.574;10.040;2023-06-14T07:12:54;54225.19;;;-136.87
14666;BMP280;7420;53.574;10.040;2023-06-14T07:15:20;54225.19;;;-136.87
14666;BMP280;7420;53.574;10.040;2023-06-14T07:17:45;54225.19;;;-136.87
14666;BMP280;7420;53.574;10.040;2023-06-14T07:20:11;54227.25;;;-136.87
14666;BMP280;7420;53.574;10.040;2023-06-14T07:22:41;54225.19;;;-136.87
14666;BMP280;7420;53.574;10.040;2023-06-14T07:25:11;54225.19;;;-136.87
14666;BMP280;7420;53.574;10.040;2023-06-14T07:27:43;54225.19;;;-136.87
14666;BMP280;7420;53.574;10.040;2023-06-14T07:30:09;54225.19;;;-136.87
14666;BMP280;7420;53.574;10.040;2023-06-14T07:32:35;54229.28;;;-136.87
14666;BMP280;7420;53.574;10.040;2023-06-14T07:35:00;54225.19;;;-136.87
14666;BMP280;7420;53.574;10.040;2023-06-14T07:37:26;54225.19;;;-136.87
14666;BMP280;7420;53.574;10.040;2023-06-14T07:39:51;54225.19;;;-136.87
14666;BMP280;7420;53.574;10.040;2023-06-14T07:42:16;54227.25;;;-136.87
14666;BMP280;7420;53.574;10.040;2023-06-14T07:44:42;54227.25;;;-136.87
14666;BMP280;7420;53.574;10.040;2023-06-14T07:47:07;54227.25;;;-136.87
14666;BMP280;7420;53.574;10.040;2023-06-14T07:49:33;54227.25;;;-136.87
14666;BMP280;7420;53.574;10.040;2023-06-14T07:51:58;54225.19;;;-136.87
14666;BMP280;7420;53.574;10.040;2023-06-14T07:54:24;54229.28;;;-136.87
14666;BMP280;7420;53.574;10.040;2023-06-14T07:56:51;54229.28;;;-136.87
14666;BMP280;7420;53.574;10.040;2023-06-14T07:59:17;54231.31;;;-136.87
14666;BMP280;7420;53.574;10.040;2023-06-14T08:01:42;54227.25;;;-136.87
14666;BMP280;7420;53.574;10.040;2023-06-14T08:04:12;54233.38;;;-136.87
14666;BMP280;7420;53.574;10.040;2023-06-14T08:06:38;54227.25;;;-136.87
14666;BMP280;7420;53.574;10.040;2023-06-14T08:09:04;54233.38;;;-136.87
14666;BMP280;7420;53.574;10.040;2023-06-14T08:11:29;54233.38;;;-136.87
14666;BMP280;7420;53.574;10.040;2023-06-14T08:13:54;54235.41;;;-136.87
14666;BMP280;7420;53.574;10.040;2023-06-14T08:16:20;54233.38;;;-136.87
14666;BMP280;7420;53.574;10.040;2023-06-14T08:18:45;54237.44;;;-136.87
14666;BMP280;7420;53.574;10.040;2023-06-14T08:21:11;54233.38;;;-136.87
14666;BMP280;7420;53.574;10.040;2023-06-14T08:23:36;54237.44;;;-136.87
14666;BMP280;7420;53.574;10.040;2023-06-14T08:26:01;54237.44;;;-136.87
14666;BMP280;7420;53.574;10.040;2023-06-14T08:28:29;54239.50;;;-136.87
14666;BMP280;7420;53.574;10.040;2023-06-14T08:33:40;54237.44;;;-136.87
14666;BMP280;7420;53.574;10.040;2023-06-14T08:36:08;54237.44;;;-136.87
14666;BMP280;7420;53.574;10.040;2023-06-14T08:38:33;54237.44;;;-136.87
14666;BMP280;7420;53.574;10.040;2023-06-14T08:41:00;54241.53;;;-136.87
14666;BMP280;7420;53.574;10.040;2023-06-14T08:43:26;54241.53;;;-136.87
14666;BMP280;7420;53.574;10.040;2023-06-14T08:45:58;54241.53;;;-136.87
14666;BMP280;7420;53.574;10.040;2023-06-14T08:48:26;54239.50;;;-136.87
14666;BMP280;7420;53.574;10.040;2023-06-14T08:50:54;54243.59;;;-136.87
14666;BMP280;7420;53.574;10.040;2023-06-14T08:53:28;54245.63;;;-136.87
14666;BMP280;7420;53.574;10.040;2023-06-14T08:56:00;54245.63;;;-136.87
14666;BMP280;7420;53.574;10.040;2023-06-14T08:58:30;54245.63;;;-136.87
14666;BMP280;7420;53.574;10.040;2023-06-14T09:00:57;54245.63;;;-136.87
14666;BMP280;7420;53.574;10.040;2023-06-14T09:03:23;54243.59;;;-136.87
14666;BMP280;7420;53.574;10.040;2023-06-14T09:05:56;54247.66;;;-136.87
14666;BMP280;7420;53.574;10.040;2023-06-14T09:08:21;54243.59;;;-136.87
14666;BMP280;7420;53.574;10.040;2023-06-14T09:10:48;54247.66;;;-136.87
14666;BMP280;7420;53.574;10.040;2023-06-14T09:13:14;54243.59;;;-136.87
14666;BMP280;7420;53.574;10.040;2023-06-14T09:15:39;54243.59;;;-136.87
14666;BMP280;7420;53.574;10.040;2023-06-14T09:18:05;54249.72;;;-136.87
14666;BMP280;7420;53.574;10.040;2023-06-14T09:20:31;54247.66;;;-136.87
14666;BMP280;7420;53.574;10.040;2023-06-14T09:22:57;54245.63;;;-136.87
14666;BMP280;7420;53.574;10.040;2023-06-14T09:25:23;54245.63;;;-136.87
14666;BMP280;7420;53.574;10.040;2023-06-14T09:27:51;54243.59;;;-136.87
14666;BMP280;7420;53.574;10.040;2023-06-14T09:30:19;54241.53;;;-136.87
14666;BMP280;7420;53.574;10.040;2023-06-14T09:32:45;54241.53;;;-136.87
14666;BMP280;7420;53.574;10.040;2023-06-14T09:35:10;54241.53;;;-136.87
14666;BMP280;7420;53.574;10.040;2023-06-14T09:37:36;54241.53;;;-136.87
14666;BMP280;7420;53.574;10.040;2023-06-14T09:40:03;54243.59;;;-136.87
14666;BMP280;7420;53.574;10.040;2023-06-14T09:42:29;54245.63;;;-136.87
14666;BMP280;7420;53.574;10.040;2023-06-14T09:44:56;54245.63;;;-136.87
14666;BMP280;7420;53.574;10.040;2023-06-14T09:47:23;54237.44;;;-136.87
14666;BMP280;7420;53.574;10.040;2023-06-14T09:49:51;54245.63;;;-136.87
14666;BMP280;7420;53.574;10.040;2023-06-14T09:52:20;54239.50;;;-136.87
14666;BMP280;7420;53.574;10.040;2023-06-14T09:54:47;54235.41;;;-136.87
14666;BMP280;7420;53.574;10.040;2023-06-14T09:57:16;54239.50;;;-136.87
14666;BMP280;7420;53.574;10.040;2023-06-14T09:59:43;54239.50;;;-136.87
14666;BMP280;7420;53.574;10.040;2023-06-14T10:02:22;54237.44;;;-136.87
14666;BMP280;7420;53.574;10.040;2023-06-14T10:04:55;54233.38;;;-136.87
14666;BMP280;7420;53.574;10.040;2023-06-14T10:07:25;54231.31;;;-136.87
14666;BMP280;7420;53.574;10.040;2023-06-14T10:09:52;54241.53;;;-136.87
14666;BMP280;7420;53.574;10.040;2023-06-14T10:12:18;54237.44;;;-136.87
14666;BMP280;7420;53.574;10.040;2023-06-14T10:14:51;54233.38;;;-136.87
14666;BMP280;7420;53.574;10.040;2023-06-14T10:17:31;54229.28;;;-136.87
14666;BMP280;7420;53.574;10.040;2023-06-14T10:20:15;54229.28;;;-136.87
14666;BMP280;7420;53.574;10.040;2023-06-14T10:23:37;54229.28;;;-136.87
14666;BMP280;7420;53.574;10.040;2023-06-14T10:25:43;54231.31;;;-136.87
14666;BMP280;7420;53.574;10.040;2023-06-14T10:30:37;54235.41;;;-136.87
14666;BMP280;7420;53.574;10.040;2023-06-14T10:33:06;54229.28;;;-136.87
14666;BMP280;7420;53.574;10.040;2023-06-14T10:35:32;54229.28;;;-136.87
14666;BMP280;7420;53.574;10.040;2023-06-14T10:38:08;54231.31;;;-136.87
14666;BMP280;7420;53.574;10.040;2023-06-14T10:40:34;54227.25;;;-136.87
14666;BMP280;7420;53.574;10.040;2023-06-14T10:42:59;54227.25;;;-136.87
14666;BMP280;7420;53.574;10.040;2023-06-14T10:45:25;54219.06;;;-136.87
14666;BMP280;7420;53.574;10.040;2023-06-14T10:47:50;54221.13;;;-136.87
14666;BMP280;7420;53.574;10.040;2023-06-14T10:50:27;54227.25;;;-136.87
14666;BMP280;7420;53.574;10.040;2023-06-14T10:52:56;54227.25;;;-136.87
14666;BMP280;7420;53.574;10.040;2023-06-14T10:55:21;54225.19;;;-136.87
14666;BMP280;7420;53.574;10.040;2023-06-14T10:57:52;54219.06;;;-136.87
14666;BMP280;7420;53.574;10.040;2023-06-14T11:00:22;54221.13;;;-136.87
14666;BMP280;7420;53.574;10.040;2023-06-14T11:05:52;54225.19;;;-136.87
14666;BMP280;7420;53.574;10.040;2023-06-14T11:11:13;54235.41;;;-136.87
14666;BMP280;7420;53.574;10.040;2023-06-14T11:13:41;54225.19;;;-136.87
14666;BMP280;7420;53.574;10.040;2023-06-14T11:16:14;54221.13;;;-136.87
14666;BMP280;7420;53.574;10.040;2023-06-14T11:18:40;54221.13;;;-136.87
14666;BMP280;7420;53.574;10.040;2023-06-14T11:21:05;54219.06;;;-136.87
14666;BMP280;7420;53.574;10.040;2023-06-14T11:23:31;54229.28;;;-136.87
14666;BMP280;7420;53.574;10.040;2023-06-14T11:25:56;54229.28;;;-136.87
14666;BMP280;7420;53.574;10.040;2023-06-14T11:28:21;54233.38;;;-136.87
14666;BMP280;7420;53.574;10.040;2023-06-14T11:30:59;54237.44;;;-136.87
14666;BMP280;7420;53.574;10.040;2023-06-14T11:33:24;54235.41;;;-136.87
14666;BMP280;7420;53.574;10.040;2023-06-14T11:35:51;54223.16;;;-136.87
14666;BMP280;7420;53.574;10.040;2023-06-14T11:38:16;54229.28;;;-136.87
14666;BMP280;7420;53.574;10.040;2023-06-14T11:40:42;54221.13;;;-136.87
14666;BMP280;7420;53.574;10.040;2023-06-14T11:43:07;54221.13;;;-136.87
14666;BMP280;7420;53.574;10.040;2023-06-14T11:45:33;54227.25;;;-136.87
14666;BMP280;7420;53.574;10.040;2023-06-14T11:47:58;54225.19;;;-136.87
14666;BMP280;7420;53.574;10.040;2023-06-14T11:50:26;54229.28;;;-136.87
14666;BMP280;7420;53.574;10.040;2023-06-14T11:52:55;54221.13;;;-136.87
14666;BMP280;7420;53.574;10.040;2023-06-14T11:55:22;54214.97;;;-136.87
14666;BMP280;7420;53.574;10.040;2023-06-14T11:57:47;54212.94;;;-136.87
14666;BMP280;7420;53.574;10.040;2023-06-14T12:00:13;54219.06;;;-136.87
14666;BMP280;7420;53.574;10.040;2023-06-14T12:02:41;54223.16;;;-136.87
14666;BMP280;7420;53.574;10.040;2023-06-14T12:05:07;54227.25;;;-136.87
14666;BMP280;7420;53.574;10.040;2023-06-14T12:07:38;54217.03;;;-136.87
14666;BMP280;7420;53.574;10.040;2023-06-14T12:10:09;54217.03;;;-136.87
14666;BMP280;7420;53.574;10.040;2023-06-14T12:12:39;54212.94;;;-136.87
14666;BMP280;7420;53.574;10.040;2023-06-14T12:15:06;54210.91;;;-136.87
14666;BMP280;7420;53.574;10.040;2023-06-14T12:17:33;54210.91;;;-136.87
14666;BMP280;7420;53.574;10.040;2023-06-14T12:20:05;54219.06;;;-136.87
14666;BMP280;7420;53.574;10.040;2023-06-14T12:22:32;54221.13;;;-136.87
14666;BMP280;7420;53.574;10.040;2023-06-14T12:24:57;54221.13;;;-136.87
14666;BMP280;7420;53.574;10.040;2023-06-14T12:27:23;54217.03;;;-136.87
14666;BMP280;7420;53.574;10.040;2023-06-14T12:30:01;54217.03;;;-136.87
14666;BMP280;7420;53.574;10.040;2023-06-14T12:32:27;54221.13;;;-136.87
14666;BMP280;7420;53.574;10.040;2023-06-14T12:34:52;54214.97;;;-136.87
14666;BMP280;7420;53.574;10.040;2023-06-14T12:37:18;54217.03;;;-136.87
14666;BMP280;7420;53.574;10.040;2023-06-14T12:39:43;54225.19;;;-136.87
14666;BMP280;7420;53.574;10.040;2023-06-14T12:42:08;54221.13;;;-136.87
14666;BMP280;7420;53.574;10.040;2023-06-14T12:44:34;54217.03;;;-136.87
14666;BMP280;7420;53.574;10.040;2023-06-14T12:47:05;54212.94;;;-136.87
14666;BMP280;7420;53.574;10.040;2023-06-14T12:49:31;54204.78;;;-136.87
14666;BMP280;7420;53.574;10.040;2023-06-14T12:51:56;54204.78;;;-136.87
14666;BMP280;7420;53.574;10.040;2023-06-14T12:54:21;54200.69;;;-136.87
14666;BMP280;7420;53.574;10.040;2023-06-14T12:56:50;54210.91;;;-136.87
14666;BMP280;7420;53.574;10.040;2023-06-14T12:59:17;54210.91;;;-136.87
14666;BMP280;7420;53.574;10.040;2023-06-14T13:01:42;54208.84;;;-136.87
14666;BMP280;7420;53.574;10.040;2023-06-14T13:04:07;54208.84;;;-136.87
14666;BMP280;7420;53.574;10.040;2023-06-14T13:06:33;54200.69;;;-136.87
14666;BMP280;7420;53.574;10.040;2023-06-14T13:08:58;54206.81;;;-136.87
14666;BMP280;7420;53.574;10.040;2023-06-14T13:11:24;54212.94;;;-136.87
14666;BMP280;7420;53.574;10.040;2023-06-14T13:13:49;54198.66;;;-136.87
14666;BMP280;7420;53.574;10.040;2023-06-14T13:16:14;54202.72;;;-136.87
14666;BMP280;7420;53.574;10.040;2023-06-14T13:18:40;54194.56;;;-136.87
14666;BMP280;7420;53.574;10.040;2023-06-14T13:21:05;54196.59;;;-136.87
14666;BMP280;7420;53.574;10.040;2023-06-14T13:23:30;54200.69;;;-136.87
14666;BMP280;7420;53.574;10.040;2023-06-14T13:25:56;54198.66;;;-136.87
14666;BMP280;7420;53.574;10.040;2023-06-14T13:28:21;54200.69;;;-136.87
14666;BMP280;7420;53.574;10.040;2023-06-14T13:30:47;54192.53;;;-136.87
14666;BMP280;7420;53.574;10.040;2023-06-14T13:33:13;54192.53;;;-136.87
14666;BMP280;7420;53.574;10.040;2023-06-14T13:35:38;54188.44;;;-136.87
14666;BMP280;7420;53.574;10.040;2023-06-14T13:38:04;54188.44;;;-136.87
14666;BMP280;7420;53.574;10.040;2023-06-14T13:40:29;54194.56;;;-136.87
14666;BMP280;7420;53.574;10.040;2023-06-14T13:42:54;54188.44;;;-136.87
14666;BMP280;7420;53.574;10.040;2023-06-14T13:45:20;54188.44;;;-136.87
14666;BMP280;7420;53.574;10.040;2023-06-14T13:47:45;54176.19;;;-136.87
14666;BMP280;7420;53.574;10.040;2023-06-14T13:50:13;54200.69;;;-136.87
14666;BMP280;7420;53.574;10.040;2023-06-14T13:52:39;54200.69;;;-136.87
14666;BMP280;7420;53.574;10.040;2023-06-14T13:55:04;54196.59;;;-136.87